Time;durP1;ratioP1;P1;durP2;ratioP2;P2;SDS_P1;SDS_P2;PMS_P1;PMS_P2;Temp;Humidity;BMP_temperature;BMP_pressure;BME280_temperature;BME280_humidity;BME280_pressure;Samples;Min_cycle;Max_cycle;Signal;HPM_P1;HPM_P2
2023/04/08 00:00:06;;;;;;;0.10;0.10;;;;;;;;;;4978455;28;20121;-75
2023/04/08 00:02:35;;;;;;;0.43;0.43;;;;;;;;;;5011146;28;20406;-78
2023/04/08 00:05:00;;;;;;;0.88;0.60;;;;;;;;;;5013456;28;20032;-78
2023/04/08 00:07:26;;;;;;;0.15;0.15;;;;;;;;;;5010897;28;20034;-79
2023/04/08 00:09:51;;;;;;;0.10;0.10;;;;;;;;;;5013503;28;20433;-77
2023/04/08 00:12:17;;;;;;;0.10;0.10;;;;;;;;;;4995823;28;20029;-75
2023/04/08 00:14:42;;;;;;;0.10;0.10;;;;;;;;;;4996095;28;20076;-79
2023/04/08 00:17:08;;;;;;;0.10;0.10;;;;;;;;;;5013690;28;20025;-81
2023/04/08 00:19:33;;;;;;;0.10;0.10;;;;;;;;;;5013521;28;20034;-80
2023/04/08 00:21:58;;;;;;;0.20;0.20;;;;;;;;;;5012109;28;20034;-76
2023/04/08 00:24:24;;;;;;;0.20;0.20;;;;;;;;;;5013538;28;20108;-79
2023/04/08 00:26:50;;;;;;;0.55;0.43;;;;;;;;;;5013436;28;20038;-78
2023/04/08 00:29:15;;;;;;;0.30;0.30;;;;;;;;;;5013163;28;20044;-81
2023/04/08 00:31:41;;;;;;;0.10;0.10;;;;;;;;;;4995734;28;20037;-79
2023/04/08 00:34:07;;;;;;;0.63;0.30;;;;;;;;;;4995496;28;20125;-80
2023/04/08 00:36:33;;;;;;;0.20;0.20;;;;;;;;;;5011863;28;20029;-85
2023/04/08 00:38:58;;;;;;;0.20;0.20;;;;;;;;;;4995578;28;20386;-84
2023/04/08 00:41:24;;;;;;;0.17;0.17;;;;;;;;;;4995488;28;20073;-80
2023/04/08 00:43:51;;;;;;;0.30;0.30;;;;;;;;;;5012994;28;20041;-83
2023/04/08 00:46:17;;;;;;;0.17;0.17;;;;;;;;;;4979498;28;20045;-84
2023/04/08 00:48:42;;;;;;;0.10;0.10;;;;;;;;;;4979475;28;20026;-81
2023/04/08 00:51:08;;;;;;;0.20;0.20;;;;;;;;;;4979201;28;20037;-80
2023/04/08 00:53:33;;;;;;;0.30;0.30;;;;;;;;;;5012734;28;20040;-80
2023/04/08 00:56:00;;;;;;;0.30;0.30;;;;;;;;;;5012586;28;20025;-80
2023/04/08 00:58:25;;;;;;;0.73;0.55;;;;;;;;;;4993894;28;20037;-80
2023/04/08 01:00:59;;;;;;;0.75;0.50;;;;;;;;;;4994979;28;20033;-81
2023/04/08 01:03:51;;;;;;;0.13;0.13;;;;;;;;;;4995128;28;20030;-79
2023/04/08 01:06:35;;;;;;;0.28;0.28;;;;;;;;;;4995107;28;20068;-80
2023/04/08 01:09:04;;;;;;;0.10;0.10;;;;;;;;;;5012615;28;20034;-81
2023/04/08 01:11:31;;;;;;;0.20;0.20;;;;;;;;;;4995312;28;20049;-81
2023/04/08 01:13:57;;;;;;;0.20;0.20;;;;;;;;;;5012244;28;20490;-81
2023/04/08 01:16:24;;;;;;;0.10;0.10;;;;;;;;;;5012529;28;20068;-81
2023/04/08 01:18:50;;;;;;;0.10;0.10;;;;;;;;;;4978895;28;20041;-81
2023/04/08 01:21:17;;;;;;;0.20;0.20;;;;;;;;;;5012158;28;20049;-82
2023/04/08 01:23:53;;;;;;;0.10;0.10;;;;;;;;;;4993992;28;20121;-79
2023/04/08 01:26:23;;;;;;;0.28;0.28;;;;;;;;;;4995102;28;20041;-80
2023/04/08 01:28:52;;;;;;;0.20;0.20;;;;;;;;;;4994903;28;20469;-77
2023/04/08 01:31:18;;;;;;;0.20;0.20;;;;;;;;;;4994908;28;20037;-79
2023/04/08 01:33:44;;;;;;;0.10;0.10;;;;;;;;;;5012161;28;20366;-79
2023/04/08 01:36:09;;;;;;;0.20;0.20;;;;;;;;;;5011237;28;20413;-79
2023/04/08 01:38:37;;;;;;;0.20;0.20;;;;;;;;;;4994860;28;20441;-79
2023/04/08 01:41:03;;;;;;;0.13;0.13;;;;;;;;;;5012509;28;20057;-80
2023/04/08 01:43:30;;;;;;;0.80;0.50;;;;;;;;;;5012272;28;20489;-82
2023/04/08 01:45:57;;;;;;;0.20;0.20;;;;;;;;;;4996550;28;20033;-81
2023/04/08 01:48:23;;;;;;;0.10;0.10;;;;;;;;;;4999014;28;20620;-82
2023/04/08 01:50:50;;;;;;;0.20;0.20;;;;;;;;;;4982200;28;20038;-79
2023/04/08 01:53:15;;;;;;;0.30;0.30;;;;;;;;;;5012106;28;20103;-78
2023/04/08 01:55:42;;;;;;;0.20;0.20;;;;;;;;;;4995006;28;20029;-76
2023/04/08 01:58:10;;;;;;;0.20;0.20;;;;;;;;;;4994903;28;20046;-77
2023/04/08 02:00:37;;;;;;;0.45;0.45;;;;;;;;;;4994562;28;20046;-77
2023/04/08 02:03:04;;;;;;;0.15;0.15;;;;;;;;;;5010861;28;20497;-77
2023/04/08 02:05:29;;;;;;;0.30;0.30;;;;;;;;;;4994451;28;20026;-77
2023/04/08 02:07:55;;;;;;;0.25;0.20;;;;;;;;;;4994664;28;20508;-79
2023/04/08 02:10:20;;;;;;;0.10;0.10;;;;;;;;;;5012031;28;20033;-78
2023/04/08 02:12:46;;;;;;;0.30;0.30;;;;;;;;;;4994573;28;20038;-79
2023/04/08 02:15:12;;;;;;;0.45;0.30;;;;;;;;;;4993680;28;20038;-79
2023/04/08 02:17:49;;;;;;;0.20;0.20;;;;;;;;;;5012086;28;20050;-82
2023/04/08 02:20:20;;;;;;;1.77;0.73;;;;;;;;;;4978590;28;20038;-83
2023/04/08 02:22:53;;;;;;;4.22;0.98;;;;;;;;;;4994092;28;20037;-85
2023/04/08 02:25:21;;;;;;;0.20;0.20;;;;;;;;;;5011643;28;20037;-86
2023/04/08 02:27:49;;;;;;;0.20;0.20;;;;;;;;;;4997418;28;20062;-87
2023/04/08 02:30:15;;;;;;;0.20;0.20;;;;;;;;;;4981823;28;20034;-88
2023/04/08 02:32:42;;;;;;;0.35;0.35;;;;;;;;;;4981076;28;20041;-84
2023/04/08 02:35:08;;;;;;;0.10;0.10;;;;;;;;;;5015286;28;20034;-85
2023/04/08 02:37:34;;;;;;;0.45;0.45;;;;;;;;;;4994795;28;20022;-83
2023/04/08 02:39:59;;;;;;;0.10;0.10;;;;;;;;;;5015138;28;20034;-76
2023/04/08 02:42:25;;;;;;;0.20;0.20;;;;;;;;;;4997444;28;20033;-75
2023/04/08 02:44:51;;;;;;;0.10;0.10;;;;;;;;;;4997282;28;20080;-77
2023/04/08 02:47:17;;;;;;;0.10;0.10;;;;;;;;;;4997870;28;20030;-76
2023/04/08 02:49:42;;;;;;;0.73;0.43;;;;;;;;;;4997574;28;20037;-78
2023/04/08 02:52:08;;;;;;;0.30;0.30;;;;;;;;;;5013785;28;20030;-77
2023/04/08 02:54:34;;;;;;;0.30;0.30;;;;;;;;;;4997577;28;20152;-80
2023/04/08 02:56:59;;;;;;;0.10;0.10;;;;;;;;;;4997256;28;20025;-80
2023/04/08 02:59:25;;;;;;;0.63;0.40;;;;;;;;;;5014928;28;20088;-84
2023/04/08 03:01:50;;;;;;;0.10;0.10;;;;;;;;;;4980000;28;20034;-84
2023/04/08 03:04:15;;;;;;;0.10;0.10;;;;;;;;;;4975560;28;20037;-82
2023/04/08 03:06:41;;;;;;;0.10;0.10;;;;;;;;;;5011273;28;20883;-83
2023/04/08 03:09:06;;;;;;;0.10;0.10;;;;;;;;;;5011064;28;20037;-84
2023/04/08 03:11:32;;;;;;;0.17;0.17;;;;;;;;;;4993015;28;20091;-81
2023/04/08 03:13:57;;;;;;;0.70;0.60;;;;;;;;;;4993618;28;20478;-81
2023/04/08 03:16:23;;;;;;;3.50;0.50;;;;;;;;;;4993760;28;20894;-81
2023/04/08 03:18:49;;;;;;;0.20;0.20;;;;;;;;;;4993264;28;20034;-82
2023/04/08 03:21:15;;;;;;;1.55;0.88;;;;;;;;;;4993075;28;20557;-82
2023/04/08 03:23:41;;;;;;;0.77;0.57;;;;;;;;;;4993865;28;20061;-83
2023/04/08 03:26:06;;;;;;;0.17;0.17;;;;;;;;;;5010863;28;20026;-83
2023/04/08 03:28:31;;;;;;;0.10;0.10;;;;;;;;;;5010475;28;20136;-82
2023/04/08 03:30:57;;;;;;;0.45;0.40;;;;;;;;;;4993245;28;20030;-82
2023/04/08 03:33:22;;;;;;;0.25;0.25;;;;;;;;;;5010348;28;20036;-79
2023/04/08 03:35:47;;;;;;;0.22;0.22;;;;;;;;;;5010972;28;20034;-78
2023/04/08 03:38:13;;;;;;;0.10;0.10;;;;;;;;;;4993406;28;20061;-76
2023/04/08 03:40:38;;;;;;;0.28;0.28;;;;;;;;;;5011181;28;20049;-79
2023/04/08 03:43:05;;;;;;;0.10;0.10;;;;;;;;;;4993880;28;20366;-80
2023/04/08 03:45:30;;;;;;;1.35;0.43;;;;;;;;;;5009251;28;20019;-79
2023/04/08 03:47:56;;;;;;;0.13;0.13;;;;;;;;;;4993778;28;20084;-80
2023/04/08 03:50:21;;;;;;;0.20;0.20;;;;;;;;;;4993743;28;20061;-81
2023/04/08 03:52:47;;;;;;;0.25;0.25;;;;;;;;;;4993653;28;20389;-77
2023/04/08 03:55:12;;;;;;;0.10;0.10;;;;;;;;;;5010720;28;20393;-78
2023/04/08 03:57:38;;;;;;;0.10;0.10;;;;;;;;;;4977294;28;20041;-82
2023/04/08 04:00:03;;;;;;;0.10;0.10;;;;;;;;;;5011282;28;20033;-82
2023/04/08 04:02:37;;;;;;;0.10;0.10;;;;;;;;;;4996684;28;20042;-86
2023/04/08 04:05:03;;;;;;;0.10;0.10;;;;;;;;;;5005693;28;20034;-77
2023/04/08 04:07:28;;;;;;;0.10;0.10;;;;;;;;;;4994846;28;20101;-77
2023/04/08 04:09:55;;;;;;;0.10;0.10;;;;;;;;;;4997400;28;20033;-78
2023/04/08 04:12:21;;;;;;;0.30;0.30;;;;;;;;;;5004532;28;20026;-76
2023/04/08 04:14:47;;;;;;;0.13;0.13;;;;;;;;;;4998369;28;20034;-77
2023/04/08 04:17:12;;;;;;;0.50;0.50;;;;;;;;;;4994801;28;20030;-76
2023/04/08 04:19:37;;;;;;;0.20;0.20;;;;;;;;;;4975665;28;20062;-77
2023/04/08 04:22:03;;;;;;;0.10;0.10;;;;;;;;;;4991049;28;20125;-75
2023/04/08 04:24:28;;;;;;;0.20;0.20;;;;;;;;;;4998595;28;20046;-79
2023/04/08 04:26:53;;;;;;;0.10;0.10;;;;;;;;;;4991352;28;20084;-77
2023/04/08 04:29:19;;;;;;;0.20;0.20;;;;;;;;;;4997546;28;20481;-81
2023/04/08 04:31:44;;;;;;;0.30;0.30;;;;;;;;;;4988584;28;20171;-81
2023/04/08 04:34:10;;;;;;;0.10;0.10;;;;;;;;;;5001477;28;20385;-82
2023/04/08 04:36:35;;;;;;;0.10;0.10;;;;;;;;;;4989309;28;20501;-80
2023/04/08 04:39:01;;;;;;;0.82;0.25;;;;;;;;;;4980331;28;20511;-79
2023/04/08 04:41:27;;;;;;;0.35;0.30;;;;;;;;;;4982635;28;20527;-80
2023/04/08 04:43:52;;;;;;;0.22;0.22;;;;;;;;;;5002786;28;20065;-80
2023/04/08 04:46:18;;;;;;;0.60;0.60;;;;;;;;;;4998869;28;20034;-79
2023/04/08 04:48:43;;;;;;;0.40;0.40;;;;;;;;;;5004847;28;20026;-81
2023/04/08 04:51:08;;;;;;;0.10;0.10;;;;;;;;;;4987664;28;20490;-79
2023/04/08 04:53:34;;;;;;;0.45;0.40;;;;;;;;;;5006019;28;20466;-81
2023/04/08 04:56:00;;;;;;;0.55;0.43;;;;;;;;;;4999766;28;20037;-85
2023/04/08 04:58:26;;;;;;;0.25;0.25;;;;;;;;;;5005057;28;20033;-82
2023/04/08 05:00:51;;;;;;;0.20;0.20;;;;;;;;;;5003472;28;20401;-80
2023/04/08 05:03:17;;;;;;;0.10;0.10;;;;;;;;;;5000683;28;20065;-80
2023/04/08 05:05:42;;;;;;;2.05;0.68;;;;;;;;;;4992648;28;20501;-80
2023/04/08 05:08:07;;;;;;;0.75;0.60;;;;;;;;;;4987045;28;20034;-79
2023/04/08 05:10:33;;;;;;;0.43;0.30;;;;;;;;;;4989823;28;20041;-78
2023/04/08 05:13:00;;;;;;;0.28;0.28;;;;;;;;;;5005649;28;20125;-81
2023/04/08 05:15:25;;;;;;;0.75;0.57;;;;;;;;;;5006980;28;20037;-80
2023/04/08 05:17:50;;;;;;;0.28;0.20;;;;;;;;;;5002978;28;20034;-77
2023/04/08 05:20:16;;;;;;;0.63;0.63;;;;;;;;;;5002699;28;20125;-80
2023/04/08 05:22:44;;;;;;;1.05;1.05;;;;;;;;;;4977022;28;20106;-78
2023/04/08 05:25:11;;;;;;;4.38;0.82;;;;;;;;;;4975407;28;20050;-79
2023/04/08 05:27:39;;;;;;;1.08;0.38;;;;;;;;;;4975384;28;20390;-76
2023/04/08 05:30:05;;;;;;;2.47;1.25;;;;;;;;;;4986074;28;20030;-77
2023/04/08 05:32:30;;;;;;;1.75;0.77;;;;;;;;;;4972464;28;20037;-77
2023/04/08 05:34:56;;;;;;;1.13;0.55;;;;;;;;;;4993683;28;20385;-78
2023/04/08 05:37:21;;;;;;;0.95;0.52;;;;;;;;;;4997820;28;20113;-76
2023/04/08 05:39:46;;;;;;;0.50;0.50;;;;;;;;;;4972348;28;20039;-76
2023/04/08 05:42:12;;;;;;;1.90;0.90;;;;;;;;;;4989725;28;20042;-76
2023/04/08 05:44:40;;;;;;;0.98;0.52;;;;;;;;;;4990012;28;20038;-79
2023/04/08 05:47:05;;;;;;;1.10;0.80;;;;;;;;;;4982250;28;20124;-79
2023/04/08 05:49:32;;;;;;;0.55;0.43;;;;;;;;;;4998679;28;20189;-76
2023/04/08 05:51:57;;;;;;;0.55;0.32;;;;;;;;;;4999199;28;20036;-75
2023/04/08 05:54:22;;;;;;;0.35;0.30;;;;;;;;;;5000295;28;20132;-75
2023/04/08 05:56:48;;;;;;;0.32;0.32;;;;;;;;;;4998131;28;20030;-78
2023/04/08 05:59:13;;;;;;;0.20;0.20;;;;;;;;;;4998648;28;20045;-75
2023/04/08 06:01:39;;;;;;;0.35;0.32;;;;;;;;;;5004061;28;20062;-77
2023/04/08 06:04:04;;;;;;;0.10;0.10;;;;;;;;;;4991859;28;20034;-77
2023/04/08 06:06:29;;;;;;;0.10;0.10;;;;;;;;;;5003981;28;20018;-79
2023/04/08 06:08:55;;;;;;;0.10;0.10;;;;;;;;;;5003957;28;20041;-80
2023/04/08 06:11:20;;;;;;;0.10;0.10;;;;;;;;;;5002457;28;20186;-78
2023/04/08 06:13:46;;;;;;;0.10;0.10;;;;;;;;;;5003892;28;20050;-79
2023/04/08 06:16:12;;;;;;;0.20;0.20;;;;;;;;;;4990940;28;20036;-80
2023/04/08 06:18:38;;;;;;;0.10;0.10;;;;;;;;;;4991603;28;20026;-82
2023/04/08 06:21:03;;;;;;;0.10;0.10;;;;;;;;;;4973410;28;20339;-80
2023/04/08 06:23:28;;;;;;;0.28;0.28;;;;;;;;;;5002060;28;20117;-80
2023/04/08 06:25:54;;;;;;;0.10;0.10;;;;;;;;;;4985336;28;20485;-80
2023/04/08 06:28:19;;;;;;;0.20;0.20;;;;;;;;;;4985210;28;20465;-80
2023/04/08 06:30:45;;;;;;;0.10;0.10;;;;;;;;;;5000505;28;20030;-79
2023/04/08 06:33:10;;;;;;;0.30;0.20;;;;;;;;;;4966539;28;20820;-76
2023/04/08 06:35:36;;;;;;;0.88;0.82;;;;;;;;;;4982635;28;20034;-78
2023/04/08 06:38:02;;;;;;;0.10;0.10;;;;;;;;;;5005694;28;20033;-77
2023/04/08 06:40:27;;;;;;;1.02;0.77;;;;;;;;;;4998987;28;20125;-79
2023/04/08 06:42:53;;;;;;;0.20;0.20;;;;;;;;;;4986046;28;20120;-76
2023/04/08 06:45:34;;;;;;;0.10;0.10;;;;;;;;;;4998696;28;20034;-79
2023/04/08 06:47:59;;;;;;;0.28;0.28;;;;;;;;;;4997824;28;20083;-79
2023/04/08 06:50:25;;;;;;;0.10;0.10;;;;;;;;;;5001460;28;20095;-79
2023/04/08 06:52:50;;;;;;;0.20;0.20;;;;;;;;;;4980825;28;20474;-78
2023/04/08 06:55:16;;;;;;;0.10;0.10;;;;;;;;;;4992150;28;20043;-80
2023/04/08 06:57:41;;;;;;;0.10;0.10;;;;;;;;;;4993162;28;20045;-84
2023/04/08 07:00:07;;;;;;;0.10;0.10;;;;;;;;;;5009127;28;20065;-83
2023/04/08 07:02:33;;;;;;;0.20;0.20;;;;;;;;;;5008224;28;20040;-85
2023/04/08 07:04:58;;;;;;;0.13;0.13;;;;;;;;;;5008834;28;20381;-84
2023/04/08 07:07:24;;;;;;;0.10;0.10;;;;;;;;;;4999482;28;20042;-79
2023/04/08 07:09:50;;;;;;;0.15;0.15;;;;;;;;;;4993839;28;20038;-81
2023/04/08 07:12:15;;;;;;;0.47;0.32;;;;;;;;;;4972221;28;20398;-83
2023/04/08 07:14:41;;;;;;;0.32;0.32;;;;;;;;;;5010328;28;20026;-82
2023/04/08 07:17:06;;;;;;;0.38;0.38;;;;;;;;;;5004147;28;20364;-78
2023/04/08 07:19:32;;;;;;;0.22;0.20;;;;;;;;;;4985251;28;20489;-78
2023/04/08 07:21:57;;;;;;;0.30;0.30;;;;;;;;;;5011875;28;20045;-77
2023/04/08 07:24:22;;;;;;;0.40;0.35;;;;;;;;;;5011701;28;20017;-78
2023/04/08 07:26:48;;;;;;;0.20;0.20;;;;;;;;;;5011728;28;20045;-80
2023/04/08 07:29:14;;;;;;;0.20;0.20;;;;;;;;;;4992863;28;20065;-79
2023/04/08 07:31:41;;;;;;;0.20;0.20;;;;;;;;;;4988915;28;20033;-78
2023/04/08 07:34:07;;;;;;;0.10;0.10;;;;;;;;;;4976645;28;20104;-79
2023/04/08 07:36:33;;;;;;;0.10;0.10;;;;;;;;;;5000813;28;20043;-80
2023/04/08 07:39:02;;;;;;;0.10;0.10;;;;;;;;;;4980590;28;20054;-80
2023/04/08 07:41:27;;;;;;;0.30;0.20;;;;;;;;;;4987958;28;20065;-79
2023/04/08 07:43:53;;;;;;;0.20;0.20;;;;;;;;;;4969918;28;20720;-78
2023/04/08 07:46:20;;;;;;;0.20;0.20;;;;;;;;;;4993019;28;20061;-79
2023/04/08 07:48:46;;;;;;;0.17;0.17;;;;;;;;;;4991494;28;20034;-80
2023/04/08 07:51:12;;;;;;;0.10;0.10;;;;;;;;;;4990765;28;20034;-78
2023/04/08 07:53:38;;;;;;;0.10;0.10;;;;;;;;;;4991592;28;20096;-79
2023/04/08 07:56:09;;;;;;;0.43;0.40;;;;;;;;;;4991205;28;20038;-76
2023/04/08 07:58:35;;;;;;;0.10;0.10;;;;;;;;;;4991420;28;20100;-78
2023/04/08 08:01:01;;;;;;;18.75;0.82;;;;;;;;;;4991139;28;20478;-78
2023/04/08 08:03:27;;;;;;;0.10;0.10;;;;;;;;;;4973751;28;20030;-76
2023/04/08 08:05:52;;;;;;;0.10;0.10;;;;;;;;;;4991460;28;20038;-77
2023/04/08 08:08:17;;;;;;;0.60;0.60;;;;;;;;;;4974356;28;20046;-79
2023/04/08 08:10:43;;;;;;;0.68;0.55;;;;;;;;;;4973695;28;20026;-78
2023/04/08 08:13:08;;;;;;;1.20;0.75;;;;;;;;;;4990892;28;20497;-76
2023/04/08 08:15:34;;;;;;;0.50;0.32;;;;;;;;;;4991288;28;20030;-76
2023/04/08 08:18:00;;;;;;;0.10;0.10;;;;;;;;;;4991363;28;20073;-74
2023/04/08 08:20:26;;;;;;;0.95;0.57;;;;;;;;;;4990851;28;20042;-76
2023/04/08 08:22:51;;;;;;;0.20;0.20;;;;;;;;;;4987840;28;20109;-76
2023/04/08 08:25:17;;;;;;;0.30;0.30;;;;;;;;;;5010457;28;20428;-77
2023/04/08 08:27:44;;;;;;;0.25;0.25;;;;;;;;;;5009261;28;20485;-76
2023/04/08 08:30:09;;;;;;;0.50;0.43;;;;;;;;;;4976404;28;20037;-76
2023/04/08 08:32:35;;;;;;;0.10;0.10;;;;;;;;;;4989748;28;20026;-75
2023/04/08 08:35:01;;;;;;;0.70;0.60;;;;;;;;;;4980055;28;20025;-76
2023/04/08 08:37:26;;;;;;;0.95;0.30;;;;;;;;;;4992841;28;20038;-77
2023/04/08 08:39:52;;;;;;;0.10;0.10;;;;;;;;;;5010083;28;20456;-77
2023/04/08 08:42:19;;;;;;;1.02;0.77;;;;;;;;;;4991732;28;20030;-77
2023/04/08 08:44:45;;;;;;;0.20;0.20;;;;;;;;;;5009958;28;20038;-76
2023/04/08 08:47:10;;;;;;;0.10;0.10;;;;;;;;;;4976162;28;20540;-77
2023/04/08 08:49:36;;;;;;;0.10;0.10;;;;;;;;;;4987019;28;20076;-77
2023/04/08 08:52:02;;;;;;;0.10;0.10;;;;;;;;;;4987549;28;20018;-82
2023/04/08 08:54:27;;;;;;;1.10;0.52;;;;;;;;;;5001778;28;20041;-81
2023/04/08 08:56:53;;;;;;;0.20;0.20;;;;;;;;;;5007873;28;20026;-83
2023/04/08 08:59:19;;;;;;;0.45;0.45;;;;;;;;;;5009825;28;20080;-86
2023/04/08 09:01:44;;;;;;;0.30;0.30;;;;;;;;;;5010276;28;20033;-87
2023/04/08 09:04:18;;;;;;;0.10;0.10;;;;;;;;;;5009659;28;20049;-85
2023/04/08 09:06:45;;;;;;;0.10;0.10;;;;;;;;;;5008096;28;20038;-84
2023/04/08 09:09:11;;;;;;;0.57;0.50;;;;;;;;;;4971952;28;20045;-85
2023/04/08 09:11:44;;;;;;;0.15;0.15;;;;;;;;;;5004178;28;20048;-84
2023/04/08 09:14:20;;;;;;;0.20;0.20;;;;;;;;;;4979538;28;20437;-86
2023/04/08 09:16:46;;;;;;;0.35;0.20;;;;;;;;;;4957678;28;20042;-84
2023/04/08 09:19:12;;;;;;;0.10;0.10;;;;;;;;;;4976958;28;20038;-84
2023/04/08 09:21:39;;;;;;;0.10;0.10;;;;;;;;;;5003018;28;20041;-84
2023/04/08 09:24:05;;;;;;;0.10;0.10;;;;;;;;;;4972400;28;20060;-85
2023/04/08 09:26:30;;;;;;;0.98;0.73;;;;;;;;;;5008871;28;20408;-84
2023/04/08 09:29:00;;;;;;;0.30;0.30;;;;;;;;;;5009256;28;20034;-75
2023/04/08 09:31:27;;;;;;;0.32;0.32;;;;;;;;;;5000727;28;20034;-74
2023/04/08 09:33:53;;;;;;;0.63;0.40;;;;;;;;;;4989488;28;20045;-74
2023/04/08 09:36:19;;;;;;;0.30;0.30;;;;;;;;;;4976642;28;20056;-74
2023/04/08 09:38:45;;;;;;;0.20;0.20;;;;;;;;;;4993563;28;20034;-73
2023/04/08 09:41:19;;;;;;;0.30;0.30;;;;;;;;;;4992859;28;20046;-75
2023/04/08 09:43:54;;;;;;;0.30;0.30;;;;;;;;;;4994043;28;20493;-73
2023/04/08 09:46:31;;;;;;;0.20;0.20;;;;;;;;;;4993924;28;20066;-76
2023/04/08 09:48:59;;;;;;;0.25;0.25;;;;;;;;;;4993701;28;20489;-75
2023/04/08 09:51:28;;;;;;;0.20;0.20;;;;;;;;;;4992927;28;20474;-74
2023/04/08 09:53:59;;;;;;;0.10;0.10;;;;;;;;;;4976035;28;20022;-73
2023/04/08 09:56:26;;;;;;;0.57;0.57;;;;;;;;;;4993372;28;20076;-74
2023/04/08 09:58:53;;;;;;;0.73;0.45;;;;;;;;;;4993604;28;20038;-74
2023/04/08 10:01:23;;;;;;;0.10;0.10;;;;;;;;;;4993208;28;20088;-75
2023/04/08 10:03:51;;;;;;;0.10;0.10;;;;;;;;;;4993671;28;20038;-75
2023/04/08 10:06:16;;;;;;;0.10;0.10;;;;;;;;;;4994001;28;20038;-73
2023/04/08 10:08:43;;;;;;;0.30;0.30;;;;;;;;;;4993389;28;20093;-74
2023/04/08 10:11:08;;;;;;;0.80;0.57;;;;;;;;;;4993013;28;20061;-74
2023/04/08 10:13:34;;;;;;;0.30;0.30;;;;;;;;;;4993317;28;20069;-74
2023/04/08 10:16:20;;;;;;;0.20;0.20;;;;;;;;;;4993445;28;20034;-74
2023/04/08 10:18:48;;;;;;;1.58;1.48;;;;;;;;;;4959512;28;20394;-73
2023/04/08 10:21:33;;;;;;;0.30;0.30;;;;;;;;;;4992916;28;20107;-72
2023/04/08 10:24:00;;;;;;;0.50;0.50;;;;;;;;;;4993183;28;20034;-74
2023/04/08 10:26:29;;;;;;;0.20;0.20;;;;;;;;;;4993016;28;20049;-75
2023/04/08 10:28:55;;;;;;;0.20;0.20;;;;;;;;;;4975614;28;20482;-73
2023/04/08 10:31:20;;;;;;;1.38;0.30;;;;;;;;;;4993051;28;20124;-74
2023/04/08 10:33:46;;;;;;;0.20;0.20;;;;;;;;;;4992897;28;20029;-74
2023/04/08 10:36:13;;;;;;;0.28;0.28;;;;;;;;;;4975843;28;20073;-73
2023/04/08 10:38:41;;;;;;;0.10;0.10;;;;;;;;;;4992688;28;20042;-74
2023/04/08 10:41:07;;;;;;;0.17;0.17;;;;;;;;;;4992333;28;20494;-74
2023/04/08 10:43:33;;;;;;;0.20;0.20;;;;;;;;;;4992630;28;20390;-75
2023/04/08 10:45:59;;;;;;;0.40;0.40;;;;;;;;;;4991876;28;20129;-74
2023/04/08 10:48:27;;;;;;;0.20;0.20;;;;;;;;;;4993272;28;20214;-74
2023/04/08 10:51:05;;;;;;;0.43;0.43;;;;;;;;;;4992505;28;20027;-73
2023/04/08 10:53:32;;;;;;;0.50;0.50;;;;;;;;;;4993080;28;20062;-72
2023/04/08 10:56:05;;;;;;;0.20;0.20;;;;;;;;;;4992343;28;20038;-72
2023/04/08 10:58:31;;;;;;;0.17;0.17;;;;;;;;;;4975169;28;20251;-73
2023/04/08 11:01:02;;;;;;;0.40;0.40;;;;;;;;;;4992344;28;20433;-73
2023/04/08 11:03:28;;;;;;;0.20;0.20;;;;;;;;;;4975037;28;20520;-74
2023/04/08 11:05:56;;;;;;;0.17;0.17;;;;;;;;;;4992488;28;20034;-73
2023/04/08 11:08:26;;;;;;;0.10;0.10;;;;;;;;;;4991943;28;20118;-74
2023/04/08 11:10:52;;;;;;;0.20;0.20;;;;;;;;;;4970386;28;20049;-74
2023/04/08 11:13:19;;;;;;;0.20;0.20;;;;;;;;;;4993600;28;20489;-73
2023/04/08 11:15:45;;;;;;;0.10;0.10;;;;;;;;;;5010073;28;20049;-73
2023/04/08 11:18:10;;;;;;;0.10;0.10;;;;;;;;;;4991142;28;20034;-75
2023/04/08 11:20:37;;;;;;;0.30;0.30;;;;;;;;;;5011760;28;20072;-74
2023/04/08 11:23:02;;;;;;;0.20;0.20;;;;;;;;;;4994055;28;20038;-74
2023/04/08 11:25:28;;;;;;;0.32;0.32;;;;;;;;;;5011216;28;20132;-74
2023/04/08 11:27:53;;;;;;;0.10;0.10;;;;;;;;;;4990211;28;20026;-74
2023/04/08 11:30:19;;;;;;;0.20;0.20;;;;;;;;;;5008086;28;20060;-73
2023/04/08 11:32:45;;;;;;;0.10;0.10;;;;;;;;;;5011197;28;20450;-75
2023/04/08 11:35:10;;;;;;;0.20;0.20;;;;;;;;;;5010220;28;20109;-73
2023/04/08 11:37:39;;;;;;;0.20;0.20;;;;;;;;;;5010935;28;20026;-74
2023/04/08 11:40:06;;;;;;;0.20;0.20;;;;;;;;;;5006748;28;20037;-74
2023/04/08 11:42:31;;;;;;;0.30;0.30;;;;;;;;;;5009736;28;20030;-81
2023/04/08 11:44:57;;;;;;;1.50;1.40;;;;;;;;;;4983239;28;20077;-77
2023/04/08 11:47:30;;;;;;;0.20;0.20;;;;;;;;;;5000888;28;20028;-74
2023/04/08 11:49:56;;;;;;;0.47;0.47;;;;;;;;;;4999967;28;20398;-75
2023/04/08 11:52:21;;;;;;;0.20;0.20;;;;;;;;;;5001127;28;20052;-76
2023/04/08 11:54:47;;;;;;;0.10;0.10;;;;;;;;;;4991969;28;20026;-76
2023/04/08 11:57:14;;;;;;;0.15;0.15;;;;;;;;;;4988428;28;20041;-77
2023/04/08 11:59:39;;;;;;;0.10;0.10;;;;;;;;;;4977506;28;20053;-74
2023/04/08 12:02:05;;;;;;;0.10;0.10;;;;;;;;;;5003459;28;20115;-75
2023/04/08 12:04:31;;;;;;;0.10;0.10;;;;;;;;;;5009095;28;20108;-75
2023/04/08 12:06:57;;;;;;;0.17;0.17;;;;;;;;;;4989203;28;20053;-74
2023/04/08 12:09:22;;;;;;;0.10;0.10;;;;;;;;;;5007409;28;20034;-74
2023/04/08 12:11:48;;;;;;;0.15;0.15;;;;;;;;;;4991032;28;20133;-73
2023/04/08 12:14:14;;;;;;;0.20;0.20;;;;;;;;;;5010594;28;20037;-73
2023/04/08 12:16:39;;;;;;;0.10;0.10;;;;;;;;;;5004215;28;20096;-74
2023/04/08 12:19:04;;;;;;;0.10;0.10;;;;;;;;;;5006695;28;20075;-74
2023/04/08 12:21:31;;;;;;;0.10;0.10;;;;;;;;;;5007029;28;20343;-73
2023/04/08 12:23:56;;;;;;;0.10;0.10;;;;;;;;;;5005863;28;20057;-74
2023/04/08 12:26:22;;;;;;;0.10;0.10;;;;;;;;;;4988464;28;20104;-74
2023/04/08 12:28:47;;;;;;;0.10;0.10;;;;;;;;;;5006167;28;20022;-73
2023/04/08 12:31:12;;;;;;;0.20;0.20;;;;;;;;;;5006925;28;20038;-75
2023/04/08 12:33:38;;;;;;;0.28;0.28;;;;;;;;;;5010790;28;20038;-74
2023/04/08 12:36:03;;;;;;;0.10;0.10;;;;;;;;;;5000749;28;20117;-73
2023/04/08 12:38:29;;;;;;;0.10;0.10;;;;;;;;;;5005866;28;20034;-74
2023/04/08 12:40:55;;;;;;;0.10;0.10;;;;;;;;;;5010262;28;20060;-75
2023/04/08 12:43:21;;;;;;;0.10;0.10;;;;;;;;;;5009418;28;20444;-74
2023/04/08 12:45:47;;;;;;;0.10;0.10;;;;;;;;;;4992296;28;20037;-75
2023/04/08 12:48:12;;;;;;;0.10;0.10;;;;;;;;;;5009178;28;20951;-77
2023/04/08 12:50:38;;;;;;;0.10;0.10;;;;;;;;;;5010142;28;20050;-74
2023/04/08 12:53:03;;;;;;;0.10;0.10;;;;;;;;;;4992041;28;20069;-74
2023/04/08 12:55:29;;;;;;;0.20;0.20;;;;;;;;;;5009699;28;20037;-74
2023/04/08 12:57:55;;;;;;;0.20;0.20;;;;;;;;;;5009684;28;20030;-75
2023/04/08 13:00:21;;;;;;;0.10;0.10;;;;;;;;;;5006940;28;20394;-74
2023/04/08 13:02:46;;;;;;;0.10;0.10;;;;;;;;;;5004645;28;20030;-74
2023/04/08 13:05:11;;;;;;;0.10;0.10;;;;;;;;;;5000082;28;20417;-74
2023/04/08 13:07:37;;;;;;;0.10;0.10;;;;;;;;;;4997987;28;20030;-74
2023/04/08 13:10:03;;;;;;;0.10;0.10;;;;;;;;;;4979125;28;20038;-74
2023/04/08 13:12:29;;;;;;;0.10;0.10;;;;;;;;;;4990770;28;20087;-74
2023/04/08 13:14:54;;;;;;;0.10;0.10;;;;;;;;;;5009201;28;20038;-75
2023/04/08 13:17:19;;;;;;;0.00;0.00;;;;;;;;;;5009266;28;20245;-74
2023/04/08 13:19:46;;;;;;;0.10;0.10;;;;;;;;;;5009526;28;20093;-75
2023/04/08 13:22:13;;;;;;;0.10;0.10;;;;;;;;;;5005786;28;20597;-77
2023/04/08 13:24:38;;;;;;;0.10;0.10;;;;;;;;;;4997519;28;20038;-76
2023/04/08 13:27:04;;;;;;;0.10;0.10;;;;;;;;;;4996916;28;20478;-75
2023/04/08 13:29:29;;;;;;;0.10;0.10;;;;;;;;;;5000163;28;20113;-78
2023/04/08 13:31:54;;;;;;;0.10;0.10;;;;;;;;;;5001366;28;20061;-76
2023/04/08 13:37:48;;;;;;;0.10;0.10;;;;;;;;;;5003432;28;20125;-74
2023/04/08 13:40:13;;;;;;;0.10;0.10;;;;;;;;;;5009103;28;20124;-75
2023/04/08 13:42:38;;;;;;;0.10;0.10;;;;;;;;;;4990769;28;20033;-75
2023/04/08 13:45:04;;;;;;;0.10;0.10;;;;;;;;;;5009027;28;20021;-76
2023/04/08 13:47:30;;;;;;;0.20;0.20;;;;;;;;;;5009232;28;20493;-75
2023/04/08 13:49:56;;;;;;;0.10;0.10;;;;;;;;;;5009615;28;20129;-75
2023/04/08 13:52:21;;;;;;;0.17;0.17;;;;;;;;;;4991704;28;20858;-74
2023/04/08 13:54:47;;;;;;;0.17;0.17;;;;;;;;;;5009748;28;20173;-75
2023/04/08 13:57:12;;;;;;;0.10;0.10;;;;;;;;;;5008338;28;20030;-75
2023/04/08 13:59:38;;;;;;;0.43;0.43;;;;;;;;;;5009253;28;20034;-75
2023/04/08 14:02:03;;;;;;;0.20;0.20;;;;;;;;;;5009048;28;20432;-75
2023/04/08 14:04:29;;;;;;;0.20;0.20;;;;;;;;;;5008991;28;20034;-78
2023/04/08 14:06:56;;;;;;;0.20;0.20;;;;;;;;;;4991823;28;20124;-74
2023/04/08 14:09:22;;;;;;;0.20;0.20;;;;;;;;;;4989626;28;20202;-79
2023/04/08 14:11:47;;;;;;;0.40;0.40;;;;;;;;;;5007432;28;20262;-79
2023/04/08 14:14:13;;;;;;;0.20;0.20;;;;;;;;;;5007174;28;20029;-76
2023/04/08 14:16:40;;;;;;;0.10;0.10;;;;;;;;;;5007590;28;20092;-74
2023/04/08 14:19:06;;;;;;;0.13;0.13;;;;;;;;;;5007344;28;20025;-75
2023/04/08 14:21:36;;;;;;;0.25;0.25;;;;;;;;;;4992072;28;20090;-76
2023/04/08 14:24:04;;;;;;;0.10;0.10;;;;;;;;;;4977784;28;20911;-73
2023/04/08 14:26:29;;;;;;;0.20;0.20;;;;;;;;;;4993115;28;20113;-74
2023/04/08 14:28:55;;;;;;;0.20;0.20;;;;;;;;;;4992747;28;20033;-76
2023/04/08 14:31:21;;;;;;;0.40;0.40;;;;;;;;;;5010001;28;20390;-76
2023/04/08 14:33:46;;;;;;;0.20;0.20;;;;;;;;;;5010273;28;20524;-74
2023/04/08 14:36:12;;;;;;;0.20;0.20;;;;;;;;;;5011919;28;20030;-74
2023/04/08 14:38:38;;;;;;;0.20;0.20;;;;;;;;;;5002676;28;20483;-75
2023/04/08 14:41:04;;;;;;;0.20;0.20;;;;;;;;;;5005120;28;20034;-75